Time;durP1;ratioP1;P1;durP2;ratioP2;P2;SDS_P1;SDS_P2;PMS_P1;PMS_P2;Temp;Humidity;BMP_temperature;BMP_pressure;BME280_temperature;BME280_humidity;BME280_pressure;Samples;Min_cycle;Max_cycle;Signal;HPM_P1;HPM_P2
2023/05/28 00:01:11;;;;;;;6.63;5.00;;;;;;;;;;749917;187;867694;-63
2023/05/28 00:03:37;;;;;;;8.30;4.87;;;;;;;;;;748516;186;917285;-63
2023/05/28 00:06:03;;;;;;;9.77;4.27;;;;;;;;;;744265;187;919837;-68
2023/05/28 00:08:29;;;;;;;6.93;4.50;;;;;;;;;;752055;186;913086;-64
2023/05/28 00:10:59;;;;;;;8.10;4.87;;;;;;;;;;745142;185;925607;-68
2023/05/28 00:13:21;;;;;;;7.20;4.70;;;;;;;;;;747787;186;918189;-67
2023/05/28 00:15:47;;;;;;;8.97;5.03;;;;;;;;;;744437;185;919600;-67
2023/05/28 00:18:14;;;;;;;9.03;5.30;;;;;;;;;;743554;187;1021833;-68
2023/05/28 00:20:39;;;;;;;11.60;5.07;;;;;;;;;;746937;186;918240;-63
2023/05/28 00:23:05;;;;;;;9.93;4.80;;;;;;;;;;744240;186;919459;-63
2023/05/28 00:25:30;;;;;;;9.67;5.40;;;;;;;;;;745431;185;917100;-64
2023/05/28 00:27:56;;;;;;;9.07;5.73;;;;;;;;;;735262;187;2147455;-67
2023/05/28 00:30:24;;;;;;;9.17;5.33;;;;;;;;;;746403;186;920998;-63
2023/05/28 00:32:48;;;;;;;12.87;5.03;;;;;;;;;;753524;186;920492;-63
2023/05/28 00:35:14;;;;;;;12.23;6.20;;;;;;;;;;747059;186;920368;-67
2023/05/28 00:37:40;;;;;;;14.67;7.47;;;;;;;;;;750117;186;823195;-63
2023/05/28 00:40:06;;;;;;;9.77;5.23;;;;;;;;;;748883;186;919480;-63
2023/05/28 00:42:32;;;;;;;15.23;6.77;;;;;;;;;;754250;182;919561;-63
2023/05/28 00:44:58;;;;;;;11.73;7.10;;;;;;;;;;744867;185;919331;-67
2023/05/28 00:47:24;;;;;;;9.30;6.20;;;;;;;;;;747446;186;922495;-64
2023/05/28 00:49:49;;;;;;;10.03;6.17;;;;;;;;;;753393;186;915482;-64
2023/05/28 00:52:15;;;;;;;13.30;6.23;;;;;;;;;;747842;186;918437;-67
2023/05/28 00:54:41;;;;;;;8.60;4.80;;;;;;;;;;743711;187;1021087;-66
2023/05/28 00:57:07;;;;;;;8.10;4.73;;;;;;;;;;749569;185;919141;-64
2023/05/28 00:59:34;;;;;;;9.97;5.63;;;;;;;;;;747349;186;818410;-67
2023/05/28 01:01:59;;;;;;;7.63;5.23;;;;;;;;;;749260;185;919970;-64
2023/05/28 01:04:29;;;;;;;11.73;6.55;;;;;;;;;;747902;187;856248;-64
2023/05/28 01:06:51;;;;;;;16.97;7.00;;;;;;;;;;745888;187;910992;-64
2023/05/28 01:09:17;;;;;;;15.40;7.50;;;;;;;;;;746294;187;921344;-67
2023/05/28 01:11:43;;;;;;;18.37;6.75;;;;;;;;;;745070;186;914838;-64
2023/05/28 01:14:09;;;;;;;17.10;8.30;;;;;;;;;;750564;185;905289;-63
2023/05/28 01:16:35;;;;;;;14.03;8.40;;;;;;;;;;746654;186;914918;-63
2023/05/28 01:19:01;;;;;;;16.23;9.43;;;;;;;;;;748295;185;916440;-67
2023/05/28 01:21:27;;;;;;;18.03;8.77;;;;;;;;;;748570;187;919995;-63
2023/05/28 01:23:53;;;;;;;14.10;7.20;;;;;;;;;;745710;186;918981;-63
2023/05/28 01:26:18;;;;;;;12.83;8.90;;;;;;;;;;744123;186;919279;-66
2023/05/28 01:28:45;;;;;;;11.03;7.23;;;;;;;;;;752410;186;918614;-66
2023/05/28 01:31:10;;;;;;;9.93;5.73;;;;;;;;;;743247;185;922355;-65
2023/05/28 01:33:36;;;;;;;10.57;6.13;;;;;;;;;;747116;186;919243;-66
2023/05/28 01:36:02;;;;;;;10.90;5.57;;;;;;;;;;749211;186;920456;-62
2023/05/28 01:38:28;;;;;;;10.97;5.40;;;;;;;;;;750298;187;920481;-66
2023/05/28 01:40:53;;;;;;;10.40;5.90;;;;;;;;;;746526;185;922235;-62
2023/05/28 01:43:19;;;;;;;10.80;6.03;;;;;;;;;;749920;185;824017;-62
2023/05/28 01:45:45;;;;;;;10.47;5.70;;;;;;;;;;753401;181;818862;-65
2023/05/28 01:48:11;;;;;;;9.77;5.60;;;;;;;;;;743686;185;920360;-67
2023/05/28 01:50:37;;;;;;;12.57;6.33;;;;;;;;;;749388;186;817013;-66
2023/05/28 01:53:03;;;;;;;10.70;5.17;;;;;;;;;;752754;186;817581;-62
2023/05/28 01:55:29;;;;;;;9.87;6.10;;;;;;;;;;747578;185;921617;-62
2023/05/28 01:57:55;;;;;;;11.67;5.83;;;;;;;;;;745482;187;869099;-64
2023/05/28 02:00:22;;;;;;;16.00;6.80;;;;;;;;;;749178;186;924396;-61
2023/05/28 02:02:46;;;;;;;13.47;6.80;;;;;;;;;;741778;186;816216;-66
2023/05/28 02:05:13;;;;;;;18.20;9.13;;;;;;;;;;745397;186;920092;-65
2023/05/28 02:07:38;;;;;;;10.90;7.67;;;;;;;;;;744300;186;919087;-61
2023/05/28 02:10:05;;;;;;;11.57;7.03;;;;;;;;;;751605;187;917059;-65
2023/05/28 02:12:30;;;;;;;12.10;7.23;;;;;;;;;;747412;186;916003;-61
2023/05/28 02:14:56;;;;;;;9.68;5.60;;;;;;;;;;746764;183;883648;-61
2023/05/28 02:17:22;;;;;;;11.43;6.20;;;;;;;;;;752489;185;799266;-61
2023/05/28 02:19:48;;;;;;;15.73;7.30;;;;;;;;;;741925;186;915210;-62
2023/05/28 02:22:14;;;;;;;13.50;7.73;;;;;;;;;;739440;187;919445;-64
2023/05/28 02:24:40;;;;;;;13.63;8.87;;;;;;;;;;746815;187;956165;-61
2023/05/28 02:27:05;;;;;;;15.90;9.40;;;;;;;;;;740913;188;897196;-64
2023/05/28 02:29:31;;;;;;;17.10;11.00;;;;;;;;;;746833;186;919332;-65
2023/05/28 02:31:57;;;;;;;17.17;9.97;;;;;;;;;;742886;186;919733;-61
2023/05/28 02:34:23;;;;;;;17.23;9.87;;;;;;;;;;748896;187;1020696;-61
2023/05/28 02:36:52;;;;;;;13.50;9.10;;;;;;;;;;748916;185;916051;-61
2023/05/28 02:39:15;;;;;;;20.45;10.75;;;;;;;;;;745544;187;920497;-61
2023/05/28 02:41:41;;;;;;;17.83;10.33;;;;;;;;;;749470;186;840943;-61
2023/05/28 02:44:06;;;;;;;25.30;10.07;;;;;;;;;;749506;185;918339;-63
2023/05/28 02:46:32;;;;;;;16.43;10.93;;;;;;;;;;745505;185;916216;-60
2023/05/28 02:48:59;;;;;;;17.08;10.15;;;;;;;;;;750690;185;925115;-61
2023/05/28 02:51:24;;;;;;;21.87;10.63;;;;;;;;;;744118;187;918165;-60
2023/05/28 02:53:50;;;;;;;22.37;10.80;;;;;;;;;;751711;184;917884;-65
2023/05/28 02:56:16;;;;;;;21.87;11.27;;;;;;;;;;751345;185;816354;-61
2023/05/28 02:58:42;;;;;;;24.73;11.70;;;;;;;;;;751820;186;909392;-64
2023/05/28 03:01:08;;;;;;;17.90;10.93;;;;;;;;;;746342;185;915664;-60
2023/05/28 03:03:34;;;;;;;19.10;10.30;;;;;;;;;;750542;182;914798;-64
2023/05/28 03:06:00;;;;;;;18.87;9.77;;;;;;;;;;755391;185;879472;-60
2023/05/28 03:08:25;;;;;;;17.13;10.53;;;;;;;;;;744895;184;915794;-63
2023/05/28 03:10:51;;;;;;;22.60;8.93;;;;;;;;;;743864;186;926883;-65
2023/05/28 03:13:17;;;;;;;20.10;10.17;;;;;;;;;;749502;186;919030;-60
2023/05/28 03:15:43;;;;;;;19.73;10.13;;;;;;;;;;747263;186;920386;-60
2023/05/28 03:18:09;;;;;;;17.13;9.63;;;;;;;;;;745210;186;918998;-60
2023/05/28 03:20:35;;;;;;;22.43;10.20;;;;;;;;;;745967;185;920562;-60
2023/05/28 03:23:00;;;;;;;15.93;9.40;;;;;;;;;;750064;186;917808;-60
2023/05/28 03:25:26;;;;;;;18.00;10.73;;;;;;;;;;744774;186;919587;-64
2023/05/28 03:27:52;;;;;;;19.58;10.40;;;;;;;;;;744242;187;919583;-60
2023/05/28 03:30:18;;;;;;;14.33;9.53;;;;;;;;;;753935;185;918276;-61
2023/05/28 03:32:44;;;;;;;15.70;8.40;;;;;;;;;;744194;187;919469;-60
2023/05/28 03:35:10;;;;;;;19.07;9.43;;;;;;;;;;744068;184;920693;-65
2023/05/28 03:37:36;;;;;;;16.03;9.10;;;;;;;;;;751231;186;816523;-65
2023/05/28 03:40:04;;;;;;;19.87;10.40;;;;;;;;;;747169;184;918966;-61
2023/05/28 03:42:28;;;;;;;17.60;9.20;;;;;;;;;;744565;186;917409;-61
2023/05/28 03:44:54;;;;;;;19.63;13.00;;;;;;;;;;743543;186;889591;-63
2023/05/28 03:47:20;;;;;;;21.23;12.47;;;;;;;;;;751899;186;910447;-60
2023/05/28 03:49:45;;;;;;;15.77;9.30;;;;;;;;;;746663;186;918404;-61
2023/05/28 03:52:11;;;;;;;18.52;9.35;;;;;;;;;;746315;186;916842;-60
2023/05/28 03:54:37;;;;;;;19.50;10.03;;;;;;;;;;749502;187;916857;-64
2023/05/28 03:57:03;;;;;;;17.27;8.87;;;;;;;;;;745848;185;942314;-61
2023/05/28 03:59:29;;;;;;;15.20;8.90;;;;;;;;;;747787;186;915245;-61
2023/05/28 04:01:55;;;;;;;16.50;9.90;;;;;;;;;;752806;186;849478;-64
2023/05/28 04:04:20;;;;;;;16.27;10.17;;;;;;;;;;747458;186;917985;-64
2023/05/28 04:06:46;;;;;;;17.12;11.10;;;;;;;;;;749509;185;823460;-61
2023/05/28 04:09:12;;;;;;;20.50;10.77;;;;;;;;;;745560;186;919772;-61
2023/05/28 04:11:38;;;;;;;16.37;10.23;;;;;;;;;;747599;187;919112;-64
2023/05/28 04:14:04;;;;;;;13.70;7.97;;;;;;;;;;746985;183;920160;-65
2023/05/28 04:16:30;;;;;;;20.00;10.30;;;;;;;;;;748624;186;919443;-65
2023/05/28 04:18:56;;;;;;;32.17;9.67;;;;;;;;;;749524;185;816677;-63
2023/05/28 04:21:22;;;;;;;18.57;8.90;;;;;;;;;;745764;185;911278;-61
2023/05/28 04:23:47;;;;;;;15.77;9.60;;;;;;;;;;746368;186;919070;-62
2023/05/28 04:26:14;;;;;;;12.87;9.80;;;;;;;;;;752181;185;817723;-61
2023/05/28 04:28:40;;;;;;;21.07;10.67;;;;;;;;;;744688;186;801716;-61
2023/05/28 04:31:06;;;;;;;15.77;10.40;;;;;;;;;;745567;182;911923;-61
2023/05/28 04:33:31;;;;;;;17.80;9.87;;;;;;;;;;748377;186;931571;-65
2023/05/28 04:35:57;;;;;;;13.53;8.70;;;;;;;;;;746520;186;915767;-61
2023/05/28 04:38:22;;;;;;;20.43;10.93;;;;;;;;;;747268;187;819860;-64
2023/05/28 04:40:49;;;;;;;20.23;11.60;;;;;;;;;;749542;186;868816;-64
2023/05/28 04:43:15;;;;;;;19.37;10.97;;;;;;;;;;753708;185;848625;-61
2023/05/28 04:45:41;;;;;;;21.00;9.97;;;;;;;;;;738288;184;914666;-61
2023/05/28 04:48:06;;;;;;;22.43;11.13;;;;;;;;;;745734;185;912211;-61
2023/05/28 04:50:32;;;;;;;15.17;10.80;;;;;;;;;;750855;187;861025;-65
2023/05/28 04:52:58;;;;;;;30.50;12.93;;;;;;;;;;746603;186;926864;-65
2023/05/28 04:55:24;;;;;;;18.33;12.00;;;;;;;;;;744016;185;922018;-66
2023/05/28 04:57:50;;;;;;;17.70;12.17;;;;;;;;;;747303;187;918584;-62
2023/05/28 05:00:15;;;;;;;23.03;10.77;;;;;;;;;;744552;187;919489;-62
2023/05/28 05:02:41;;;;;;;14.10;9.57;;;;;;;;;;746876;186;937815;-61
2023/05/28 05:05:07;;;;;;;13.90;9.00;;;;;;;;;;747225;186;920983;-65
2023/05/28 05:07:33;;;;;;;18.83;10.33;;;;;;;;;;745305;187;919671;-62
2023/05/28 05:09:59;;;;;;;18.33;10.77;;;;;;;;;;743858;186;919906;-66
2023/05/28 05:12:25;;;;;;;15.80;10.03;;;;;;;;;;747494;186;875018;-62
2023/05/28 05:14:51;;;;;;;15.50;9.37;;;;;;;;;;748786;187;915915;-65
2023/05/28 05:17:16;;;;;;;14.65;8.70;;;;;;;;;;750426;186;919047;-66
2023/05/28 05:19:42;;;;;;;14.30;9.30;;;;;;;;;;748532;185;919867;-67
2023/05/28 05:22:08;;;;;;;12.83;9.20;;;;;;;;;;750945;186;919215;-66
2023/05/28 05:24:34;;;;;;;16.08;8.45;;;;;;;;;;749619;185;917948;-62
2023/05/28 05:27:01;;;;;;;14.40;9.57;;;;;;;;;;747088;186;870569;-66
2023/05/28 05:29:26;;;;;;;14.18;8.68;;;;;;;;;;746557;185;918722;-63
2023/05/28 05:31:52;;;;;;;12.80;8.07;;;;;;;;;;756369;182;921635;-66
2023/05/28 05:34:18;;;;;;;15.93;8.33;;;;;;;;;;746949;185;917206;-67
2023/05/28 05:36:44;;;;;;;17.80;8.60;;;;;;;;;;748729;186;879219;-63
2023/05/28 05:39:09;;;;;;;14.90;8.97;;;;;;;;;;749046;186;919279;-62
2023/05/28 05:41:35;;;;;;;14.53;8.40;;;;;;;;;;746021;186;922446;-66
2023/05/28 05:44:01;;;;;;;12.50;7.70;;;;;;;;;;747776;186;919177;-66
2023/05/28 05:46:27;;;;;;;17.20;9.73;;;;;;;;;;753099;187;814734;-67
2023/05/28 05:48:53;;;;;;;14.47;9.27;;;;;;;;;;746540;186;918810;-63
2023/05/28 05:51:19;;;;;;;14.37;8.30;;;;;;;;;;746853;182;918914;-69
2023/05/28 05:53:44;;;;;;;12.43;8.73;;;;;;;;;;749593;186;945448;-67
2023/05/28 05:56:10;;;;;;;11.17;6.83;;;;;;;;;;744215;187;935078;-67
2023/05/28 05:58:37;;;;;;;15.10;8.87;;;;;;;;;;746009;187;909643;-67
2023/05/28 06:01:02;;;;;;;16.40;7.93;;;;;;;;;;746816;186;919657;-62
2023/05/28 06:03:28;;;;;;;18.23;9.17;;;;;;;;;;752855;186;920116;-67
2023/05/28 06:05:54;;;;;;;18.20;9.17;;;;;;;;;;745018;185;1018537;-68
2023/05/28 06:08:20;;;;;;;18.87;9.32;;;;;;;;;;744910;186;879490;-64
2023/05/28 06:10:47;;;;;;;11.70;7.30;;;;;;;;;;752835;185;920210;-67
2023/05/28 06:13:12;;;;;;;14.53;8.10;;;;;;;;;;748160;186;917954;-62
2023/05/28 06:15:37;;;;;;;12.80;7.80;;;;;;;;;;746141;187;918068;-63
2023/05/28 06:18:03;;;;;;;13.97;6.40;;;;;;;;;;748617;187;919278;-64
2023/05/28 06:20:29;;;;;;;14.98;7.50;;;;;;;;;;742592;186;919604;-64
2023/05/28 06:22:56;;;;;;;10.87;7.20;;;;;;;;;;745506;186;918007;-67
2023/05/28 06:25:22;;;;;;;11.93;7.47;;;;;;;;;;743090;186;979969;-63
2023/05/28 06:27:47;;;;;;;9.43;6.73;;;;;;;;;;740873;186;820769;-67
2023/05/28 06:30:14;;;;;;;13.47;8.17;;;;;;;;;;748595;182;944565;-68
2023/05/28 06:32:39;;;;;;;12.73;6.20;;;;;;;;;;749198;186;830341;-67
2023/05/28 06:35:05;;;;;;;12.43;6.70;;;;;;;;;;751140;186;814473;-68
2023/05/28 06:37:31;;;;;;;12.13;7.00;;;;;;;;;;745694;186;916921;-64
2023/05/28 06:39:57;;;;;;;12.63;6.73;;;;;;;;;;748457;186;914771;-63
2023/05/28 06:42:23;;;;;;;9.97;5.50;;;;;;;;;;753208;186;814176;-68
2023/05/28 06:44:49;;;;;;;14.73;6.50;;;;;;;;;;745363;182;842608;-63
2023/05/28 06:47:15;;;;;;;13.17;6.37;;;;;;;;;;744387;187;925907;-67
2023/05/28 06:49:41;;;;;;;11.53;6.87;;;;;;;;;;747733;186;919000;-68
2023/05/28 06:52:07;;;;;;;9.43;5.50;;;;;;;;;;746523;185;916234;-69
2023/05/28 06:54:33;;;;;;;13.33;6.90;;;;;;;;;;746606;182;919161;-69
2023/05/28 06:56:58;;;;;;;9.75;6.37;;;;;;;;;;744881;186;919349;-68
2023/05/28 06:59:24;;;;;;;16.93;7.33;;;;;;;;;;750286;182;921012;-63
2023/05/28 07:01:50;;;;;;;9.47;5.60;;;;;;;;;;745977;186;919272;-61
2023/05/28 07:04:16;;;;;;;13.00;7.00;;;;;;;;;;749446;186;627461;-62
2023/05/28 07:06:42;;;;;;;13.50;6.63;;;;;;;;;;752383;187;629170;-61
2023/05/28 07:09:08;;;;;;;9.67;5.47;;;;;;;;;;741808;187;826333;-67
2023/05/28 07:11:33;;;;;;;9.53;6.30;;;;;;;;;;745067;187;918710;-67
2023/05/28 07:13:59;;;;;;;15.60;6.70;;;;;;;;;;748853;187;816920;-62
2023/05/28 07:16:25;;;;;;;20.40;7.37;;;;;;;;;;748890;187;814519;-62
2023/05/28 07:18:51;;;;;;;13.50;7.50;;;;;;;;;;749667;186;636318;-67
2023/05/28 07:21:17;;;;;;;12.30;6.17;;;;;;;;;;747057;186;811073;-67
2023/05/28 07:23:43;;;;;;;13.00;6.07;;;;;;;;;;749866;186;816954;-68
2023/05/28 07:26:08;;;;;;;11.40;5.90;;;;;;;;;;745284;186;916536;-61
2023/05/28 07:28:34;;;;;;;9.17;5.57;;;;;;;;;;745291;187;746031;-62
2023/05/28 07:31:00;;;;;;;9.30;4.97;;;;;;;;;;749187;186;918262;-62
2023/05/28 07:33:26;;;;;;;13.60;5.80;;;;;;;;;;748667;185;881397;-66
2023/05/28 07:35:52;;;;;;;10.90;6.10;;;;;;;;;;739669;185;917842;-61
2023/05/28 07:38:18;;;;;;;11.38;5.90;;;;;;;;;;751631;185;917058;-67
2023/05/28 07:40:44;;;;;;;10.30;5.13;;;;;;;;;;751648;185;918285;-62
2023/05/28 07:43:09;;;;;;;13.80;5.50;;;;;;;;;;748400;186;916523;-68
2023/05/28 07:45:35;;;;;;;7.27;4.33;;;;;;;;;;740334;187;916792;-68
2023/05/28 07:48:01;;;;;;;11.03;5.47;;;;;;;;;;747110;187;918590;-69
2023/05/28 07:50:27;;;;;;;8.37;5.10;;;;;;;;;;743748;186;920977;-69
2023/05/28 07:52:53;;;;;;;9.43;5.23;;;;;;;;;;747897;186;917659;-70
2023/05/28 07:55:19;;;;;;;9.70;5.47;;;;;;;;;;750690;185;922759;-61
2023/05/28 07:57:45;;;;;;;10.70;5.68;;;;;;;;;;746426;185;917840;-71
2023/05/28 08:00:12;;;;;;;10.77;5.00;;;;;;;;;;746113;185;919544;-69
2023/05/28 08:02:36;;;;;;;7.90;4.67;;;;;;;;;;753104;185;919030;-61
2023/05/28 08:05:02;;;;;;;15.07;5.87;;;;;;;;;;746810;186;816678;-62
2023/05/28 08:07:28;;;;;;;12.80;4.87;;;;;;;;;;746406;186;917261;-71
2023/05/28 08:09:54;;;;;;;7.87;5.17;;;;;;;;;;747191;186;921720;-69
2023/05/28 08:12:20;;;;;;;6.93;4.30;;;;;;;;;;751967;182;918214;-62
2023/05/28 08:14:46;;;;;;;13.97;6.00;;;;;;;;;;747638;185;920096;-69
2023/05/28 08:17:12;;;;;;;11.60;5.97;;;;;;;;;;743778;186;934775;-68
2023/05/28 08:19:38;;;;;;;10.87;5.23;;;;;;;;;;748886;186;875977;-61
2023/05/28 08:22:03;;;;;;;9.67;5.30;;;;;;;;;;745673;186;921322;-62
2023/05/28 08:24:30;;;;;;;7.53;4.60;;;;;;;;;;746197;186;815523;-71
2023/05/28 08:26:55;;;;;;;8.47;4.80;;;;;;;;;;749044;187;916486;-73
2023/05/28 08:29:21;;;;;;;11.40;4.87;;;;;;;;;;750466;186;816324;-70
2023/05/28 08:31:47;;;;;;;7.23;4.63;;;;;;;;;;746968;186;816428;-61
2023/05/28 08:34:13;;;;;;;8.70;5.27;;;;;;;;;;748280;186;918901;-71
2023/05/28 08:36:38;;;;;;;9.13;4.23;;;;;;;;;;746561;186;918976;-62
2023/05/28 08:39:04;;;;;;;12.47;6.20;;;;;;;;;;745533;186;912032;-72
2023/05/28 08:41:30;;;;;;;14.27;4.87;;;;;;;;;;743289;186;919777;-62
2023/05/28 08:43:56;;;;;;;12.77;6.13;;;;;;;;;;750282;185;923176;-70
2023/05/28 08:46:22;;;;;;;7.30;4.07;;;;;;;;;;747387;186;920118;-61
2023/05/28 08:48:48;;;;;;;17.90;7.90;;;;;;;;;;747857;185;920469;-61
2023/05/28 08:51:14;;;;;;;7.03;4.33;;;;;;;;;;753914;184;917497;-62
2023/05/28 08:53:39;;;;;;;11.30;6.20;;;;;;;;;;746477;185;920174;-61
2023/05/28 08:56:05;;;;;;;11.83;6.70;;;;;;;;;;745904;186;865677;-68
2023/05/28 08:58:31;;;;;;;11.33;7.07;;;;;;;;;;751371;186;920606;-61
2023/05/28 09:00:57;;;;;;;8.73;5.03;;;;;;;;;;747850;186;918650;-61
2023/05/28 09:03:23;;;;;;;8.93;5.90;;;;;;;;;;747871;185;918835;-69
2023/05/28 09:05:49;;;;;;;10.87;6.53;;;;;;;;;;747996;187;920449;-61
2023/05/28 09:08:14;;;;;;;10.70;6.45;;;;;;;;;;749248;185;822647;-62
2023/05/28 09:10:40;;;;;;;8.50;5.60;;;;;;;;;;743663;187;919548;-71
2023/05/28 09:13:06;;;;;;;10.68;4.82;;;;;;;;;;746399;187;919632;-69
2023/05/28 09:15:33;;;;;;;8.83;5.63;;;;;;;;;;752603;185;818021;-71
2023/05/28 09:17:58;;;;;;;11.10;6.37;;;;;;;;;;748296;184;919640;-73
2023/05/28 09:20:24;;;;;;;10.30;5.40;;;;;;;;;;744715;185;903052;-71
2023/05/28 09:23:00;;;;;;;9.40;5.40;;;;;;;;;;750526;186;911269;-72
2023/05/28 09:25:26;;;;;;;7.27;4.60;;;;;;;;;;748126;186;886088;-62
2023/05/28 09:27:52;;;;;;;8.60;5.00;;;;;;;;;;748967;185;918046;-62
2023/05/28 09:30:17;;;;;;;11.85;5.22;;;;;;;;;;746548;186;919001;-70
2023/05/28 09:32:43;;;;;;;13.53;5.80;;;;;;;;;;752095;187;816907;-62
2023/05/28 09:35:10;;;;;;;9.83;5.90;;;;;;;;;;745080;185;936035;-67
2023/05/28 09:37:36;;;;;;;7.40;3.87;;;;;;;;;;743464;186;919880;-75
2023/05/28 09:40:03;;;;;;;6.70;4.50;;;;;;;;;;753168;187;920040;-62
2023/05/28 09:42:27;;;;;;;11.90;4.77;;;;;;;;;;744602;187;919378;-71
2023/05/28 09:44:53;;;;;;;7.83;4.93;;;;;;;;;;746425;186;817823;-73
2023/05/28 09:47:21;;;;;;;12.70;4.97;;;;;;;;;;742562;187;919398;-72
2023/05/28 09:49:45;;;;;;;8.83;5.17;;;;;;;;;;755201;186;806330;-62
2023/05/28 09:52:11;;;;;;;9.33;5.27;;;;;;;;;;748521;186;776077;-63
2023/05/28 09:54:37;;;;;;;8.60;4.33;;;;;;;;;;748217;186;815681;-71
2023/05/28 09:57:03;;;;;;;10.00;5.17;;;;;;;;;;752755;186;816583;-63
2023/05/28 09:59:28;;;;;;;9.23;4.83;;;;;;;;;;745311;186;871793;-71
2023/05/28 10:01:55;;;;;;;16.13;6.93;;;;;;;;;;744301;187;918648;-63
2023/05/28 10:04:21;;;;;;;9.57;5.40;;;;;;;;;;753364;181;816895;-62
2023/05/28 10:06:47;;;;;;;7.77;5.00;;;;;;;;;;744908;185;918510;-62
2023/05/28 10:09:13;;;;;;;8.47;3.70;;;;;;;;;;748869;185;938467;-73
2023/05/28 10:11:38;;;;;;;10.87;4.57;;;;;;;;;;748471;182;865995;-62
2023/05/28 10:14:04;;;;;;;12.87;4.67;;;;;;;;;;754321;185;935037;-71
2023/05/28 10:16:30;;;;;;;10.20;5.23;;;;;;;;;;745154;186;917167;-63
2023/05/28 10:18:56;;;;;;;8.83;5.10;;;;;;;;;;745836;186;1020974;-70
2023/05/28 10:21:22;;;;;;;5.87;3.57;;;;;;;;;;750857;186;896023;-70
2023/05/28 10:23:48;;;;;;;10.63;5.03;;;;;;;;;;747960;187;915564;-71
2023/05/28 10:26:14;;;;;;;10.63;5.00;;;;;;;;;;743817;186;1021582;-62
2023/05/28 10:28:39;;;;;;;10.73;5.50;;;;;;;;;;752150;186;816697;-73
2023/05/28 10:31:06;;;;;;;11.93;4.70;;;;;;;;;;746349;186;915678;-70
2023/05/28 10:33:31;;;;;;;6.40;4.77;;;;;;;;;;747565;185;918992;-71
2023/05/28 10:35:57;;;;;;;9.13;3.83;;;;;;;;;;747514;187;817249;-63
2023/05/28 10:38:23;;;;;;;6.77;4.10;;;;;;;;;;745455;187;819579;-62
2023/05/28 10:40:49;;;;;;;7.97;4.03;;;;;;;;;;746060;186;817973;-71
2023/05/28 10:43:20;;;;;;;6.28;3.42;;;;;;;;;;752019;185;813600;-74
2023/05/28 10:45:46;;;;;;;6.70;4.60;;;;;;;;;;751968;187;901684;-70
2023/05/28 10:48:12;;;;;;;9.13;4.47;;;;;;;;;;747132;186;918353;-70
2023/05/28 10:50:38;;;;;;;8.27;4.27;;;;;;;;;;749192;186;917070;-62
2023/05/28 10:53:05;;;;;;;9.13;3.90;;;;;;;;;;745916;186;919205;-70
2023/05/28 10:55:37;;;;;;;6.53;4.17;;;;;;;;;;747748;187;918925;-62
2023/05/28 10:58:06;;;;;;;11.53;4.40;;;;;;;;;;751279;187;957285;-70
2023/05/28 11:00:31;;;;;;;7.10;3.90;;;;;;;;;;750373;185;918504;-63
2023/05/28 11:02:57;;;;;;;14.53;5.10;;;;;;;;;;752261;187;919558;-71
2023/05/28 11:05:24;;;;;;;7.13;4.43;;;;;;;;;;745027;186;919595;-71
2023/05/28 11:07:49;;;;;;;7.90;4.03;;;;;;;;;;744779;186;1736181;-63
2023/05/28 11:10:15;;;;;;;6.83;4.27;;;;;;;;;;742987;186;919456;-63
2023/05/28 11:12:41;;;;;;;8.03;4.00;;;;;;;;;;752035;186;918541;-62
2023/05/28 11:15:07;;;;;;;10.30;3.87;;;;;;;;;;748718;184;849350;-62
2023/05/28 11:17:37;;;;;;;6.83;4.00;;;;;;;;;;749894;185;830486;-62
2023/05/28 11:20:02;;;;;;;5.03;3.00;;;;;;;;;;754534;186;899775;-71
2023/05/28 11:22:28;;;;;;;7.20;3.70;;;;;;;;;;744551;186;920039;-61
2023/05/28 11:24:58;;;;;;;6.55;3.75;;;;;;;;;;748214;186;925559;-71
2023/05/28 11:27:23;;;;;;;7.70;3.97;;;;;;;;;;747278;186;922289;-72
2023/05/28 11:29:48;;;;;;;7.33;4.17;;;;;;;;;;749339;186;920945;-72
2023/05/28 11:32:14;;;;;;;6.10;4.00;;;;;;;;;;745437;186;916524;-70
2023/05/28 11:34:40;;;;;;;8.73;3.60;;;;;;;;;;747414;186;884826;-72
2023/05/28 11:37:07;;;;;;;6.50;4.90;;;;;;;;;;753316;186;942069;-71
2023/05/28 11:39:32;;;;;;;12.53;3.83;;;;;;;;;;747154;186;918368;-62
2023/05/28 11:41:58;;;;;;;8.50;4.80;;;;;;;;;;746834;186;873915;-62
2023/05/28 11:44:23;;;;;;;5.40;3.47;;;;;;;;;;754168;185;912968;-72
2023/05/28 11:46:50;;;;;;;7.57;4.03;;;;;;;;;;752061;186;714861;-62
2023/05/28 11:49:15;;;;;;;10.77;4.33;;;;;;;;;;745193;187;918889;-63
2023/05/28 11:51:41;;;;;;;10.70;4.33;;;;;;;;;;747570;186;914426;-68
2023/05/28 11:54:07;;;;;;;8.40;3.60;;;;;;;;;;746153;182;916026;-63
2023/05/28 11:56:33;;;;;;;6.57;4.00;;;;;;;;;;749074;185;918948;-63
2023/05/28 11:58:59;;;;;;;4.90;2.60;;;;;;;;;;745990;186;918897;-71
2023/05/28 12:01:24;;;;;;;5.23;3.03;;;;;;;;;;751223;186;920871;-71
2023/05/28 12:03:50;;;;;;;11.93;3.40;;;;;;;;;;747027;186;904587;-70
2023/05/28 12:06:16;;;;;;;6.80;3.40;;;;;;;;;;749228;183;639292;-70
2023/05/28 12:08:42;;;;;;;7.80;3.20;;;;;;;;;;747535;187;918029;-72
2023/05/28 12:11:08;;;;;;;9.10;4.00;;;;;;;;;;745420;187;917259;-72
2023/05/28 12:13:34;;;;;;;7.27;3.87;;;;;;;;;;743638;186;919350;-71
2023/05/28 12:16:06;;;;;;;7.80;4.10;;;;;;;;;;745997;185;919183;-70
2023/05/28 12:18:31;;;;;;;5.60;3.43;;;;;;;;;;738718;189;919262;-72
2023/05/28 12:20:57;;;;;;;6.83;3.40;;;;;;;;;;746367;186;922238;-70
2023/05/28 12:23:23;;;;;;;9.67;3.10;;;;;;;;;;745680;185;915469;-70
2023/05/28 12:25:49;;;;;;;11.20;4.20;;;;;;;;;;746978;184;920560;-70
2023/05/28 12:28:15;;;;;;;10.10;3.72;;;;;;;;;;749367;186;720996;-71
2023/05/28 12:30:40;;;;;;;9.00;3.80;;;;;;;;;;746770;182;914500;-70
2023/05/28 12:33:06;;;;;;;10.53;3.87;;;;;;;;;;749980;186;840634;-71
2023/05/28 12:35:32;;;;;;;10.33;3.17;;;;;;;;;;744412;185;852771;-69
2023/05/28 12:37:58;;;;;;;7.07;3.15;;;;;;;;;;748619;183;826639;-69
2023/05/28 12:40:24;;;;;;;6.10;3.03;;;;;;;;;;744442;185;822636;-70
2023/05/28 12:42:50;;;;;;;7.70;3.27;;;;;;;;;;750776;187;827906;-69
2023/05/28 12:45:15;;;;;;;6.67;2.70;;;;;;;;;;748796;186;619251;-69
2023/05/28 12:47:41;;;;;;;7.43;3.90;;;;;;;;;;750402;186;917425;-69
2023/05/28 12:50:07;;;;;;;9.60;5.20;;;;;;;;;;745746;187;817065;-69
2023/05/28 12:52:34;;;;;;;7.57;3.40;;;;;;;;;;747706;184;617852;-70
2023/05/28 12:55:00;;;;;;;5.13;3.30;;;;;;;;;;746961;186;895558;-70
2023/05/28 12:57:26;;;;;;;7.63;3.60;;;;;;;;;;750545;186;915782;-71
2023/05/28 12:59:52;;;;;;;4.20;2.80;;;;;;;;;;744546;187;919432;-68
2023/05/28 13:02:17;;;;;;;8.00;4.17;;;;;;;;;;746165;185;919319;-68
2023/05/28 13:04:43;;;;;;;7.70;3.00;;;;;;;;;;747288;186;919279;-68
2023/05/28 13:07:10;;;;;;;7.07;3.30;;;;;;;;;;748266;186;912324;-69
2023/05/28 13:09:35;;;;;;;7.07;2.97;;;;;;;;;;747767;181;1059947;-70
2023/05/28 13:12:01;;;;;;;4.70;2.70;;;;;;;;;;746537;186;870717;-70
2023/05/28 13:14:27;;;;;;;4.50;2.67;;;;;;;;;;752694;186;889880;-72
2023/05/28 13:16:55;;;;;;;7.00;3.23;;;;;;;;;;746846;185;912890;-71
2023/05/28 13:19:19;;;;;;;8.40;3.60;;;;;;;;;;745883;186;810116;-70
2023/05/28 13:21:45;;;;;;;4.87;2.73;;;;;;;;;;751112;187;915527;-71
2023/05/28 13:24:11;;;;;;;6.53;3.30;;;;;;;;;;751253;183;829189;-70
2023/05/28 13:26:36;;;;;;;9.63;3.28;;;;;;;;;;746882;186;920728;-71
2023/05/28 13:29:03;;;;;;;6.40;3.20;;;;;;;;;;746167;186;912532;-68
2023/05/28 13:31:28;;;;;;;7.93;2.97;;;;;;;;;;742705;187;930832;-69
2023/05/28 13:33:54;;;;;;;5.83;2.83;;;;;;;;;;747166;183;814788;-71
2023/05/28 13:36:20;;;;;;;6.00;3.17;;;;;;;;;;747055;187;815899;-69
2023/05/28 13:38:47;;;;;;;7.13;2.50;;;;;;;;;;754848;184;920664;-70
2023/05/28 13:41:11;;;;;;;7.13;3.20;;;;;;;;;;750272;186;893804;-71
2023/05/28 13:43:37;;;;;;;8.27;3.60;;;;;;;;;;748306;185;890427;-69
2023/05/28 13:46:04;;;;;;;5.20;3.00;;;;;;;;;;751518;186;919507;-71
2023/05/28 13:48:30;;;;;;;4.90;3.47;;;;;;;;;;746766;185;920331;-71
2023/05/28 13:50:56;;;;;;;5.00;3.20;;;;;;;;;;748983;186;851678;-70
2023/05/28 13:53:22;;;;;;;5.95;3.28;;;;;;;;;;752260;185;1213857;-68
2023/05/28 13:55:49;;;;;;;5.40;3.27;;;;;;;;;;743027;187;844719;-70
2023/05/28 13:58:14;;;;;;;6.20;3.70;;;;;;;;;;746668;185;927677;-70
2023/05/28 14:00:40;;;;;;;6.00;3.20;;;;;;;;;;747401;186;911837;-69
2023/05/28 14:03:06;;;;;;;6.30;3.43;;;;;;;;;;749307;186;767061;-71
2023/05/28 14:05:32;;;;;;;6.43;3.40;;;;;;;;;;747023;185;918657;-69
2023/05/28 14:07:58;;;;;;;5.03;3.60;;;;;;;;;;750278;185;918959;-71
2023/05/28 14:10:23;;;;;;;11.40;3.77;;;;;;;;;;751778;186;920802;-69
2023/05/28 14:12:50;;;;;;;8.23;3.60;;;;;;;;;;742214;187;918837;-69